createdAt,value
2019-02-16T00:02:02.808Z,2.00
2019-02-16T00:04:31.532Z,2.30
2019-02-16T00:07:00.246Z,1.93
2019-02-16T00:09:28.978Z,2.40
2019-02-16T00:11:57.696Z,2.17
2019-02-16T00:14:26.479Z,2.70
2019-02-16T00:16:55.214Z,2.10
2019-02-16T00:19:23.945Z,2.10
2019-02-16T00:21:52.660Z,1.80
2019-02-16T00:24:21.393Z,2.53
2019-02-16T00:26:50.166Z,1.93
2019-02-16T00:29:18.944Z,2.10
2019-02-16T00:31:47.714Z,2.00
2019-02-16T00:34:16.493Z,2.07
2019-02-16T00:36:45.219Z,2.10
2019-02-16T00:39:13.960Z,1.80
2019-02-16T00:41:42.756Z,2.03
2019-02-16T00:44:11.485Z,2.27
2019-02-16T00:46:40.203Z,2.10
2019-02-16T00:49:09.102Z,2.30
2019-02-16T00:51:37.907Z,2.00
2019-02-16T00:54:06.703Z,2.20
2019-02-16T00:56:35.518Z,2.57
2019-02-16T00:59:04.246Z,2.00
2019-02-16T01:01:33.014Z,2.33
2019-02-16T01:04:01.730Z,1.97
2019-02-16T01:06:30.535Z,1.93
2019-02-16T01:08:59.300Z,2.03
2019-02-16T01:11:28.029Z,1.97
2019-02-16T01:13:56.788Z,2.40
2019-02-16T01:16:25.516Z,2.20
2019-02-16T01:18:54.223Z,2.17
2019-02-16T01:21:23.252Z,2.30
2019-02-16T01:23:52.110Z,2.30
2019-02-16T01:26:20.943Z,2.10
2019-02-16T01:28:49.756Z,2.00
2019-02-16T01:31:18.611Z,2.43
2019-02-16T01:33:47.439Z,1.90
2019-02-16T01:36:16.349Z,1.70
2019-02-16T01:38:45.223Z,2.13
2019-02-16T01:41:14.059Z,2.23
2019-02-16T01:43:42.884Z,2.00
2019-02-16T01:46:11.723Z,2.10
2019-02-16T01:48:40.495Z,2.10
2019-02-16T01:51:09.306Z,2.17
2019-02-16T01:53:38.056Z,2.20
2019-02-16T01:56:06.918Z,2.23
2019-02-16T01:58:35.762Z,2.00
2019-02-16T02:01:04.617Z,1.97
2019-02-16T02:03:33.433Z,2.03
2019-02-16T02:06:02.266Z,2.27
2019-02-16T02:08:31.053Z,2.37
2019-02-16T02:10:59.914Z,2.50
2019-02-16T02:13:28.776Z,1.93
2019-02-16T02:15:57.571Z,2.03
2019-02-16T02:18:26.411Z,2.53
2019-02-16T02:20:55.191Z,2.00
2019-02-16T02:23:24.025Z,2.20
2019-02-16T02:25:52.822Z,1.83
2019-02-16T02:28:21.655Z,2.33
2019-02-16T02:30:50.481Z,1.87
2019-02-16T02:33:19.314Z,2.30
2019-02-16T02:35:48.148Z,2.13
2019-02-16T02:38:17.128Z,1.90
2019-02-16T02:40:45.907Z,2.07
2019-02-16T02:43:14.742Z,2.00
2019-02-16T02:45:43.596Z,1.80
2019-02-16T02:48:12.409Z,2.23
2019-02-16T02:50:41.204Z,2.00
2019-02-16T02:53:10.036Z,2.30
2019-02-16T02:55:38.873Z,2.03
2019-02-16T02:58:07.685Z,1.90
2019-02-16T03:00:36.554Z,2.20
2019-02-16T03:03:05.330Z,2.20
2019-02-16T03:05:34.136Z,2.30
2019-02-16T03:08:03.013Z,2.20
2019-02-16T03:10:31.853Z,2.20
2019-02-16T03:13:00.708Z,2.40
2019-02-16T03:15:29.548Z,1.90
2019-02-16T03:17:58.551Z,2.33
2019-02-16T03:20:27.359Z,2.20
2019-02-16T03:23:12.254Z,1.73
2019-02-16T03:25:41.727Z,1.97
2019-02-16T03:28:35.689Z,2.53
2019-02-16T03:31:22.608Z,2.83
2019-02-16T03:33:53.462Z,2.20
2019-02-16T03:36:40.036Z,1.97
2019-02-16T03:39:13.563Z,1.97
2019-02-16T03:41:42.395Z,2.10
2019-02-16T03:44:11.208Z,2.60
2019-02-16T03:46:40.125Z,1.80
2019-02-16T03:49:08.947Z,2.27
2019-02-16T03:51:37.778Z,2.60
2019-02-16T03:54:06.598Z,1.97
2019-02-16T03:56:35.440Z,1.97
2019-02-16T03:59:04.272Z,2.13
2019-02-16T04:01:33.104Z,2.00
2019-02-16T04:04:01.887Z,2.20
2019-02-16T04:06:30.735Z,1.87
2019-02-16T04:08:59.591Z,2.10
2019-02-16T04:11:28.422Z,2.20
2019-02-16T04:13:57.262Z,2.10
2019-02-16T04:16:26.071Z,2.10
2019-02-16T04:18:54.893Z,2.00
2019-02-16T04:21:23.704Z,2.43
2019-02-16T04:23:52.496Z,1.97
2019-02-16T04:26:21.281Z,2.07
2019-02-16T04:28:50.092Z,2.43
2019-02-16T04:31:18.892Z,2.57
2019-02-16T04:33:47.599Z,2.90
2019-02-16T04:36:16.362Z,2.10
2019-02-16T04:38:45.263Z,2.17
2019-02-16T04:41:14.041Z,1.90
2019-02-16T04:43:42.743Z,2.20
2019-02-16T04:46:11.469Z,2.23
2019-02-16T04:48:40.319Z,2.30
2019-02-16T04:51:09.144Z,2.27
2019-02-16T04:53:37.920Z,2.20
2019-02-16T04:56:06.644Z,2.20
2019-02-16T04:58:35.367Z,2.20
2019-02-16T05:01:04.192Z,2.57
2019-02-16T05:03:32.884Z,2.53
2019-02-16T05:06:01.583Z,1.93
2019-02-16T05:08:30.305Z,2.77
2019-02-16T05:10:59.044Z,2.27
2019-02-16T05:13:27.862Z,2.17
2019-02-16T05:15:56.648Z,2.17
2019-02-16T05:18:25.479Z,2.10
2019-02-16T05:20:54.291Z,2.00
2019-02-16T05:23:23.079Z,2.20
2019-02-16T05:25:51.821Z,2.13
2019-02-16T05:28:20.609Z,2.00
2019-02-16T05:30:49.383Z,2.23
2019-02-16T05:33:18.146Z,2.30
2019-02-16T05:35:46.848Z,2.20
2019-02-16T05:38:15.684Z,2.17
2019-02-16T05:40:44.490Z,2.60
2019-02-16T05:43:13.225Z,2.20
2019-02-16T05:45:42.046Z,2.40
2019-02-16T05:48:10.820Z,2.57
2019-02-16T05:50:39.570Z,2.63
2019-02-16T05:53:08.325Z,2.63
2019-02-16T05:55:37.069Z,2.50
2019-02-16T05:58:05.838Z,2.40
2019-02-16T06:00:34.668Z,2.60
2019-02-16T06:03:03.372Z,1.97
2019-02-16T06:05:32.106Z,2.03
2019-02-16T06:08:00.882Z,2.20
2019-02-16T06:10:29.712Z,1.80
2019-02-16T06:12:58.463Z,2.00
2019-02-16T06:15:27.174Z,2.33
2019-02-16T06:17:55.912Z,2.33
2019-02-16T06:20:24.707Z,2.13
2019-02-16T06:22:53.515Z,2.10
2019-02-16T06:25:22.314Z,1.80
2019-02-16T06:27:51.089Z,2.80
2019-02-16T06:30:19.937Z,2.43
2019-02-16T06:32:48.658Z,2.63
2019-02-16T06:35:28.859Z,3.00
2019-02-16T06:38:00.630Z,2.70
2019-02-16T06:40:29.484Z,2.27
2019-02-16T06:42:58.279Z,2.67
2019-02-16T06:45:27.146Z,2.17
2019-02-16T06:47:56.376Z,2.27
2019-02-16T06:50:25.066Z,2.33
2019-02-16T06:52:53.861Z,2.27
2019-02-16T06:55:24.227Z,2.20
2019-02-16T06:57:54.697Z,2.30
2019-02-16T07:00:26.175Z,2.50
2019-02-16T07:02:55.000Z,2.70
2019-02-16T07:05:23.885Z,2.43
2019-02-16T07:07:52.682Z,2.97
2019-02-16T07:10:21.470Z,2.63
2019-02-16T07:12:50.241Z,3.03
2019-02-16T07:15:19.067Z,2.97
2019-02-16T07:17:51.993Z,2.93
2019-02-16T07:20:22.751Z,2.80
2019-02-16T07:22:51.572Z,2.30
2019-02-16T07:25:20.304Z,2.77
2019-02-16T07:27:49.112Z,5.23
2019-02-16T07:30:18.311Z,3.53
2019-02-16T07:32:47.239Z,3.93
2019-02-16T07:35:16.245Z,3.27
2019-02-16T07:37:45.537Z,3.67
2019-02-16T07:40:14.734Z,3.97
2019-02-16T07:42:51.487Z,3.47
2019-02-16T07:45:58.941Z,3.23
2019-02-16T07:48:52.155Z,3.10
2019-02-16T07:51:36.758Z,3.20
2019-02-16T07:54:18.056Z,3.53
2019-02-16T07:56:54.821Z,2.97
2019-02-16T07:59:40.496Z,3.17
2019-02-16T08:02:15.677Z,3.33
2019-02-16T08:05:02.461Z,3.50
2019-02-16T08:07:53.117Z,3.57
2019-02-16T08:10:28.545Z,3.33
2019-02-16T08:13:16.809Z,2.93
2019-02-16T08:15:54.334Z,3.27
2019-02-16T08:18:42.200Z,2.77
2019-02-16T08:21:28.826Z,2.87
2019-02-16T08:24:22.765Z,3.80
2019-02-16T08:27:10.602Z,3.23
2019-02-16T08:29:50.206Z,3.63
2019-02-16T08:32:44.436Z,3.20
2019-02-16T08:35:20.972Z,3.60
2019-02-16T08:38:00.991Z,3.23
2019-02-16T08:40:46.862Z,3.63
2019-02-16T08:43:25.875Z,4.20
2019-02-16T08:46:11.183Z,3.60
2019-02-16T08:48:49.056Z,3.77
2019-02-16T08:51:36.840Z,4.00
2019-02-16T08:54:24.730Z,4.17
2019-02-16T08:57:30.194Z,4.10
2019-02-16T09:00:30.215Z,3.90
2019-02-16T09:03:16.891Z,3.83
2019-02-16T09:06:00.239Z,4.20
2019-02-16T09:08:42.712Z,3.80
2019-02-16T09:11:31.724Z,4.33
2019-02-16T09:14:22.762Z,4.73
2019-02-16T09:17:15.905Z,4.40
2019-02-16T09:20:10.073Z,4.07
2019-02-16T09:22:47.925Z,4.50
2019-02-16T09:25:26.004Z,4.30
2019-02-16T09:28:16.189Z,4.73
2019-02-16T09:30:59.483Z,5.00
2019-02-16T09:33:57.015Z,4.50
2019-02-16T09:36:39.909Z,5.03
2019-02-16T09:39:33.546Z,4.90
2019-02-16T09:42:36.676Z,4.90
2019-02-16T09:45:39.985Z,5.43
2019-02-16T09:48:21.015Z,5.27
2019-02-16T09:51:05.582Z,6.30
2019-02-16T09:54:07.977Z,6.27
2019-02-16T09:56:49.094Z,5.90
2019-02-16T09:59:36.073Z,5.80
2019-02-16T10:02:26.714Z,5.70
2019-02-16T10:05:17.761Z,7.00
2019-02-16T10:08:00.300Z,6.43
2019-02-16T10:10:34.815Z,6.40
2019-02-16T10:13:22.865Z,6.87
2019-02-16T10:16:10.001Z,6.73
2019-02-16T10:19:01.122Z,5.90
2019-02-16T10:21:46.413Z,6.10
2019-02-16T10:24:42.013Z,7.07
2019-02-16T10:27:24.792Z,6.03
2019-02-16T10:30:15.465Z,6.60
2019-02-16T10:33:01.854Z,5.37
2019-02-16T10:35:38.933Z,6.37
2019-02-16T10:38:24.567Z,6.57
2019-02-16T10:41:09.506Z,6.47
2019-02-16T10:44:03.144Z,6.37
2019-02-16T10:46:59.887Z,7.03
2019-02-16T10:50:03.159Z,7.07
2019-02-16T10:52:43.347Z,6.17
2019-02-16T10:55:42.951Z,7.33
2019-02-16T10:58:25.471Z,6.47
2019-02-16T11:01:16.110Z,7.10
2019-02-16T11:04:03.963Z,6.90
2019-02-16T11:06:56.346Z,6.50
2019-02-16T11:09:40.132Z,6.77
2019-02-16T11:12:46.355Z,7.17
2019-02-16T11:15:36.807Z,6.87
2019-02-16T11:18:23.544Z,6.90
2019-02-16T11:21:16.358Z,9.10
2019-02-16T11:24:10.318Z,8.00
2019-02-16T11:27:16.625Z,7.77
2019-02-16T11:30:03.804Z,8.13
2019-02-16T11:32:42.089Z,8.30
2019-02-16T11:35:37.567Z,8.33
2019-02-16T11:38:37.490Z,8.10
2019-02-16T11:41:18.561Z,8.20
2019-02-16T11:44:07.745Z,8.77
2019-02-16T11:46:50.571Z,8.40
2019-02-16T11:49:37.456Z,8.00
2019-02-16T11:52:25.321Z,7.93
2019-02-16T11:55:09.357Z,7.70
2019-02-16T11:57:58.166Z,7.47
2019-02-16T12:00:40.292Z,7.83
2019-02-16T12:03:34.408Z,8.23
2019-02-16T12:06:10.043Z,8.37
2019-02-16T12:09:00.656Z,8.27
2019-02-16T12:11:41.406Z,7.77
2019-02-16T12:14:28.245Z,8.20
2019-02-16T12:17:04.904Z,7.73
2019-02-16T12:19:58.641Z,8.67
2019-02-16T12:22:46.507Z,8.03
2019-02-16T12:25:32.826Z,8.30
2019-02-16T12:28:23.001Z,7.43
2019-02-16T12:31:09.670Z,8.17
2019-02-16T12:34:03.881Z,8.50
2019-02-16T12:36:47.066Z,7.80
2019-02-16T12:39:41.038Z,8.87
2019-02-16T12:42:37.838Z,8.13
2019-02-16T12:45:38.028Z,8.40
2019-02-16T12:48:41.011Z,8.20
2019-02-16T12:51:32.037Z,7.23
2019-02-16T12:54:18.612Z,8.17
2019-02-16T12:57:10.894Z,7.87
2019-02-16T12:59:58.710Z,8.17
2019-02-16T13:02:55.431Z,7.40
2019-02-16T13:05:46.081Z,7.73
2019-02-16T13:08:23.662Z,8.43
2019-02-16T13:11:20.832Z,8.40
2019-02-16T13:14:08.697Z,7.93
2019-02-16T13:16:56.602Z,7.53
2019-02-16T13:19:35.226Z,7.33
2019-02-16T13:22:21.370Z,7.43
2019-02-16T13:25:08.724Z,7.30
2019-02-16T13:27:59.518Z,7.50
2019-02-16T13:30:51.245Z,6.93
2019-02-16T13:33:30.718Z,7.33
2019-02-16T13:36:20.673Z,8.23
2019-02-16T13:39:11.449Z,7.93
2019-02-16T13:41:44.823Z,7.63
2019-02-16T13:44:23.061Z,8.00
2019-02-16T13:47:08.652Z,8.50
2019-02-16T13:49:47.502Z,8.90
2019-02-16T13:52:21.613Z,7.50
2019-02-16T13:54:55.590Z,7.40
2019-02-16T13:57:58.816Z,8.13
2019-02-16T14:00:55.790Z,7.70
2019-02-16T14:03:39.449Z,7.47
2019-02-16T14:06:27.261Z,8.07
2019-02-16T14:09:01.267Z,7.87
2019-02-16T14:11:45.262Z,7.57
2019-02-16T14:14:31.967Z,7.63
2019-02-16T14:17:12.562Z,7.87
2019-02-16T14:19:41.364Z,7.90
2019-02-16T14:22:10.237Z,7.63
2019-02-16T14:24:45.438Z,7.80
2019-02-16T14:27:14.291Z,7.83
2019-02-16T14:29:43.124Z,7.77
2019-02-16T14:32:12.409Z,7.70
2019-02-16T14:34:41.242Z,7.43
2019-02-16T14:37:23.473Z,7.70
2019-02-16T14:39:52.410Z,7.67
2019-02-16T14:42:21.259Z,7.67
2019-02-16T14:44:50.293Z,7.07
2019-02-16T14:47:19.769Z,7.33
2019-02-16T14:49:48.574Z,8.03
2019-02-16T14:52:17.956Z,7.30
2019-02-16T14:54:47.372Z,7.57
2019-02-16T14:57:16.373Z,8.80
2019-02-16T14:59:45.448Z,8.03
2019-02-16T15:02:14.448Z,8.23
2019-02-16T15:04:44.003Z,7.47
2019-02-16T15:07:13.030Z,7.90
2019-02-16T15:09:42.635Z,8.17
2019-02-16T15:12:12.980Z,7.97
2019-02-16T15:14:42.138Z,7.30
2019-02-16T15:17:11.281Z,7.80
2019-02-16T15:19:40.080Z,7.57
2019-02-16T15:22:10.649Z,7.77
2019-02-16T15:24:40.613Z,8.77
2019-02-16T15:27:09.952Z,8.27
2019-02-16T15:29:39.259Z,7.53
2019-02-16T15:32:08.147Z,7.77
2019-02-16T15:34:37.136Z,8.60
2019-02-16T15:37:06.139Z,8.63
2019-02-16T15:39:35.384Z,8.13
2019-02-16T15:42:04.528Z,7.80
2019-02-16T15:44:36.603Z,7.93
2019-02-16T15:47:05.636Z,7.97
2019-02-16T15:49:35.003Z,8.67
2019-02-16T15:52:03.974Z,7.43
2019-02-16T15:54:33.186Z,8.13
2019-02-16T15:57:02.140Z,9.70
2019-02-16T15:59:35.176Z,8.13
2019-02-16T16:02:02.090Z,8.37
2019-02-16T16:04:31.116Z,8.87
2019-02-16T16:07:10.668Z,8.40
2019-02-16T16:09:57.175Z,9.90
2019-02-16T16:12:52.750Z,8.53
2019-02-16T16:15:43.148Z,9.13
2019-02-16T16:18:28.981Z,9.27
2019-02-16T16:21:15.369Z,8.73
2019-02-16T16:24:06.175Z,9.50
2019-02-16T16:27:00.227Z,9.17
2019-02-16T16:29:51.154Z,9.33
2019-02-16T16:32:37.922Z,9.57
2019-02-16T16:35:22.755Z,8.63
2019-02-16T16:37:59.231Z,9.73
2019-02-16T16:40:39.909Z,9.27
2019-02-16T16:43:21.218Z,8.93
2019-02-16T16:46:08.007Z,9.23
2019-02-16T16:48:54.853Z,9.97
2019-02-16T16:51:35.853Z,9.30
2019-02-16T16:54:26.040Z,8.63
2019-02-16T16:57:16.885Z,9.40
2019-02-16T16:59:53.589Z,9.30
2019-02-16T17:02:40.247Z,9.60
2019-02-16T17:05:43.454Z,9.83
2019-02-16T17:08:46.350Z,9.20
2019-02-16T17:11:49.275Z,10.00
2019-02-16T17:14:48.921Z,9.87
2019-02-16T17:17:24.091Z,10.03
2019-02-16T17:20:15.156Z,10.40
2019-02-16T17:23:06.103Z,9.50
2019-02-16T17:25:43.742Z,9.57
2019-02-16T17:28:40.664Z,9.53
2019-02-16T17:31:19.211Z,10.67
2019-02-16T17:33:58.581Z,10.40
2019-02-16T17:36:38.504Z,10.23
2019-02-16T17:39:21.278Z,10.60
2019-02-16T17:42:09.119Z,11.70
2019-02-16T17:44:56.993Z,9.73
2019-02-16T17:47:44.827Z,10.77
2019-02-16T17:50:38.785Z,11.13
2019-02-16T17:53:19.619Z,10.90
2019-02-16T17:55:54.480Z,10.53
2019-02-16T17:58:32.048Z,10.67
2019-02-16T18:01:38.408Z,10.17
2019-02-16T18:04:26.269Z,10.90
2019-02-16T18:07:19.856Z,10.30
2019-02-16T18:10:02.861Z,11.07
2019-02-16T18:12:56.819Z,10.90
2019-02-16T18:15:39.791Z,11.20
2019-02-16T18:18:27.838Z,10.40
2019-02-16T18:21:08.931Z,11.37
2019-02-16T18:23:52.236Z,11.57
2019-02-16T18:26:45.176Z,9.90
2019-02-16T18:29:42.180Z,12.17
2019-02-16T18:32:48.369Z,11.70
2019-02-16T18:35:35.163Z,11.37
2019-02-16T18:38:41.292Z,11.33
2019-02-16T18:41:32.284Z,32.27
2019-02-16T18:44:10.357Z,38.97
2019-02-16T18:47:10.198Z,25.33
2019-02-16T18:49:52.878Z,19.47
2019-02-16T18:52:49.772Z,13.83
2019-02-16T18:55:46.478Z,12.40
2019-02-16T18:58:40.543Z,11.93
2019-02-16T19:01:23.417Z,11.70
2019-02-16T19:04:11.326Z,12.73
2019-02-16T19:06:48.606Z,10.20
2019-02-16T19:09:39.470Z,11.43
2019-02-16T19:12:27.623Z,11.13
2019-02-16T19:15:15.519Z,10.33
2019-02-16T19:17:50.946Z,10.57
2019-02-16T19:20:37.897Z,11.97
2019-02-16T19:23:21.568Z,10.87
2019-02-16T19:26:02.375Z,11.43
2019-02-16T19:29:02.342Z,12.17
2019-02-16T19:31:56.103Z,11.57
2019-02-16T19:34:42.497Z,17.17
2019-02-16T19:37:33.537Z,12.80
2019-02-16T19:40:21.361Z,17.53
2019-02-16T19:43:07.889Z,24.73
2019-02-16T19:45:54.415Z,16.67
2019-02-16T19:48:51.443Z,12.67
2019-02-16T19:51:42.513Z,13.37
2019-02-16T19:54:33.097Z,14.13
2019-02-16T19:57:28.665Z,13.47
2019-02-16T20:00:15.408Z,13.23
2019-02-16T20:03:01.955Z,13.33
2019-02-16T20:05:40.092Z,10.90
2019-02-16T20:08:29.805Z,12.37
2019-02-16T20:11:33.116Z,13.13
2019-02-16T20:14:15.496Z,12.63
2019-02-16T20:17:02.261Z,11.93
2019-02-16T20:19:46.401Z,12.93
2019-02-16T20:22:43.319Z,12.20
2019-02-16T20:25:33.930Z,13.00
2019-02-16T20:28:40.211Z,11.60
2019-02-16T20:31:34.855Z,12.47
2019-02-16T20:34:21.636Z,12.63
2019-02-16T20:37:18.617Z,11.93
2019-02-16T20:40:09.533Z,12.10
2019-02-16T20:42:47.383Z,11.50
2019-02-16T20:45:38.324Z,12.63
2019-02-16T20:48:35.411Z,12.67
2019-02-16T20:51:29.305Z,13.47
2019-02-16T20:54:23.215Z,12.70
2019-02-16T20:57:13.749Z,12.80
2019-02-16T20:59:56.901Z,12.30
2019-02-16T21:02:44.603Z,12.33
2019-02-16T21:05:31.052Z,12.50
2019-02-16T21:08:25.280Z,13.30
2019-02-16T21:11:28.206Z,12.23
2019-02-16T21:14:16.128Z,12.27
2019-02-16T21:17:12.599Z,12.83
2019-02-16T21:20:00.474Z,12.83
2019-02-16T21:22:48.335Z,13.20
2019-02-16T21:25:25.289Z,13.37
2019-02-16T21:28:02.491Z,12.77
2019-02-16T21:30:45.603Z,12.20
2019-02-16T21:33:42.932Z,12.63
2019-02-16T21:36:36.578Z,13.10
2019-02-16T21:39:23.645Z,12.90
2019-02-16T21:42:14.687Z,11.90
2019-02-16T21:45:01.617Z,12.17
2019-02-16T21:47:52.526Z,13.20
2019-02-16T21:50:39.354Z,13.13
2019-02-16T21:53:27.266Z,13.00
2019-02-16T21:56:12.851Z,12.50
2019-02-16T21:59:19.142Z,13.33
2019-02-16T22:01:53.508Z,12.93
2019-02-16T22:04:30.548Z,13.57
2019-02-16T22:07:09.085Z,13.07
2019-02-16T22:09:59.880Z,12.07
2019-02-16T22:12:50.621Z,13.03
2019-02-16T22:15:19.442Z,13.10
2019-02-16T22:17:48.152Z,12.03
2019-02-16T22:20:16.896Z,12.90
2019-02-16T22:22:45.711Z,12.27
2019-02-16T22:25:14.839Z,13.37
2019-02-16T22:27:43.594Z,12.23
2019-02-16T22:30:12.333Z,12.27
2019-02-16T22:32:41.063Z,12.23
2019-02-16T22:35:09.889Z,12.10
2019-02-16T22:37:38.788Z,12.63
2019-02-16T22:40:07.594Z,12.93
2019-02-16T22:42:36.388Z,12.83
2019-02-16T22:45:05.640Z,12.93
2019-02-16T22:47:34.450Z,12.23
2019-02-16T22:50:03.214Z,13.23
2019-02-16T22:52:31.933Z,11.90
2019-02-16T22:55:00.727Z,12.23
2019-02-16T22:57:29.549Z,12.50
2019-02-16T22:59:58.268Z,13.23
2019-02-16T23:02:29.874Z,12.63
2019-02-16T23:04:58.712Z,12.10
2019-02-16T23:07:27.569Z,12.50
2019-02-16T23:09:56.295Z,11.23
2019-02-16T23:12:25.036Z,13.03
2019-02-16T23:14:53.898Z,12.80
2019-02-16T23:17:22.780Z,11.83
2019-02-16T23:19:51.834Z,12.17
2019-02-16T23:22:20.632Z,12.13
2019-02-16T23:24:49.382Z,12.10
2019-02-16T23:27:18.112Z,12.10
2019-02-16T23:29:46.847Z,12.13
2019-02-16T23:32:15.720Z,12.87
2019-02-16T23:34:44.579Z,12.87
2019-02-16T23:37:13.442Z,11.40
2019-02-16T23:39:42.175Z,12.03
2019-02-16T23:42:10.909Z,11.97
2019-02-16T23:44:39.652Z,11.73
2019-02-16T23:47:08.396Z,12.07
2019-02-16T23:49:37.287Z,11.53
2019-02-16T23:52:06.183Z,11.57
2019-02-16T23:54:34.880Z,11.40
2019-02-16T23:57:03.646Z,10.40
2019-02-16T23:59:51.481Z,10.37
